Home > Products > Valid Products > MTR

000
SAUS41 KBOX 260855
MTRMQE
METAR KMQE 260854Z AUTO 31009KT 06/M02 A3017 RMK AO1 SLP230
T00611017 51022





000
SAUS41 KBOX 260755
MTRMQE
METAR KMQE 260754Z AUTO 30008KT 07/M02 A3015 RMK AO1 SLP222
T00671017





000
SAUS41 KBOX 260656
MTRMQE
METAR KMQE 260654Z AUTO 27009KT 07/M02 A3013 RMK AO1 SLP216
T00671017





000
SAUS41 KBOX 260556
MTRMQE
METAR KMQE 260554Z AUTO 26009KT 07/M02 A3011 RMK AO1 SLP207
T00671022 10094 20067 51017





000
SAUS41 KBOX 260455
MTRMQE
METAR KMQE 260454Z AUTO 26011KT 07/M02 A3010 RMK AO1 SLP206
T00671022 401610067





000
SAUS41 KBOX 260355
MTRMQE
METAR KMQE 260354Z AUTO 25008KT 07/M02 A3009 RMK AO1 SLP200
T00671022





000
SAUS41 KBOX 260355
MTRMQE
METAR KMQE 260354Z AUTO 25008KT 07/M02 A3009 RMK AO1 SLP200
T00671022





000
SAUS41 KBOX 260255
MTRMQE
METAR KMQE 260254Z AUTO 25009KT 07/M02 A3006 RMK AO1 SLP190
T00721022 51024





000
SAUS41 KBOX 260155
MTRMQE
METAR KMQE 260154Z AUTO 24009KT 08/M03 A3004 RMK AO1 SLP184
T00781028





000
SAUS41 KBOX 260055
MTRMQE
METAR KMQE 260054Z AUTO 26011KT 09/M03 A3002 RMK AO1 SLP176
T00891033





000
SAUS41 KBOX 252355
MTRMQE
METAR KMQE 252354Z AUTO 26011KT 09/M03 A2999 RMK AO1 SLP166
T00941033 10144 20094 51029





000
SAUS41 KBOX 252255
MTRMQE
METAR KMQE 252254Z AUTO 26014G21KT 11/M04 A2996 RMK AO1 SLP156
T01061039





000
SAUS41 KBOX 252155
MTRMQE
METAR KMQE 252154Z AUTO 24009KT 12/M03 A2993 RMK AO1 SLP147
T01171033





000
SAUS41 KBOX 252155
MTRMQE
METAR KMQE 252154Z AUTO 24009KT 12/M03 A2993 RMK AO1 SLP147
T01171033





000
SAUS41 KBOX 252055
MTRMQE
METAR KMQE 252054Z AUTO 23014G20KT 13/M04 A2990 RMK AO1 SLP135
T01281039 51015





000
SAUS41 KBOX 251955
MTRMQE
METAR KMQE 251954Z AUTO 23011KT 13/M03 A2989 RMK AO1 SLP132
T01331033





000
SAUS41 KBOX 251855
MTRMQE
METAR KMQE 251854Z AUTO 23013G20KT 14/M04 A2988 RMK AO1 SLP129
T01391039





000
SAUS41 KBOX 251755
MTRMQE
METAR KMQE 251754Z AUTO 24012G20KT 14/M03 A2985 RMK AO1 PK WND
23026/1729 SLP120 6//// T01441033 10161 20128 58003 PNO $





000
SAUS41 KBOX 251655
MTRMQE
METAR KMQE 251654Z AUTO 23014G22KT 15/M01 A2987 RMK AO1 SLP126
T01501011





000
SAUS41 KBOX 251655
MTRMQE
METAR KMQE 251654Z AUTO 23014G22KT 15/M01 A2987 RMK AO1 SLP126
T01501011





000
SAUS41 KBOX 251555
MTRMQE
METAR KMQE 251554Z AUTO 24013G19KT 15/04 A2986 RMK AO1 SLP122
T01500044





000
SAUS41 KBOX 251455
MTRMQE
METAR KMQE 251454Z AUTO 24012G21KT 16/08 A2986 RMK AO1 SLP121
T01610078 53018





000
SAUS41 KBOX 251355
MTRMQE
METAR KMQE 251354Z AUTO 23013G21KT 14/11 A2984 RMK AO1 SLP115
T01440106





000
SAUS41 KBOX 251255
MTRMQE
METAR KMQE 251254Z AUTO 22016G24KT 13/12 A2983 RMK AO1 SLP109
T01330117





000
SAUS41 KBOX 251155
MTRMQE
METAR KMQE 251154Z AUTO 21014G19KT 13/12 A2981 RMK AO1 SLP103 70056
T01280122 10133 20128 51025





000
SAUS41 KBOX 251055
MTRMQE
METAR KMQE 251054Z AUTO 20014G21KT 13/13 A2979 RMK AO1 SLP099
T01280128





000
SAUS41 KBOX 251055
MTRMQE
METAR KMQE 251054Z AUTO 20014G21KT 13/13 A2979 RMK AO1 SLP099
T01280128





000
SAUS41 KBOX 250955
MTRMQE
METAR KMQE 250954Z AUTO 20014KT 13/13 A2975 RMK AO1 SLP085 T01280128





000
SAUS41 KBOX 250855
MTRMQE
METAR KMQE 250854Z AUTO 21011KT 13/13 A2973 RMK AO1 SLP078 T01280128
51007





000
SAUS41 KBOX 250755
MTRMQE
METAR KMQE 250754Z AUTO 20015KT 13/13 A2973 RMK AO1 SLP076 T01330128





000
SAUS41 KBOX 250655
MTRMQE
METAR KMQE 250654Z AUTO 18016G23KT 13/13 A2973 RMK AO1 SLP077
T01280128





000
SAUS41 KBOX 250555
MTRMQE
METAR KMQE 250554Z AUTO 19013KT 13/12 A2971 RMK AO1 SLP071 T01330122
10161 20133 53010





000
SAUS41 KBOX 250455
MTRMQE
METAR KMQE 250454Z AUTO 20011KT 14/12 A2970 RMK AO1 SLP065 T01440122
401720061





000
SAUS41 KBOX 250356
MTRMQE
METAR KMQE 250354Z AUTO 23013G25KT 16/12 A2969 RMK AO1 PK WND
23027/0336 SLP063 T01610122





000
SAUS41 KBOX 250356
MTRMQE
METAR KMQE 250354Z AUTO 23013G25KT 16/12 A2969 RMK AO1 PK WND
23027/0336 SLP063 T01610122





000
SAUS41 KBOX 250255
MTRMQE
METAR KMQE 250254Z AUTO 22017G27KT 16/12 A2968 RMK AO1 PK WND
22028/0231 SLP060 T01560122 51011





000
SAUS41 KBOX 250155
MTRMQE
METAR KMQE 250154Z AUTO 21017G25KT 15/13 A2967 RMK AO1 PK WND
22027/0134 SLP057 T01500128





000
SAUS41 KBOX 250055
MTRMQE
METAR KMQE 250054Z AUTO 21016G24KT 15/13 A2966 RMK AO1 PK WND
21032/0021 SLP053 T01500133





000
SAUS41 KBOX 242355
MTRMQE
METAR KMQE 242354Z AUTO 22021G30KT 16/14 A2965 RMK AO1 PK WND
20034/2323 SLP050 60001 T01560139 10172 20156 53017





000
SAUS41 KBOX 242255
MTRMQE
METAR KMQE 242254Z AUTO 20022G35KT 16/14 A2960 RMK AO1 PK WND
19040/2228 PRESRR SLP035 T01560144





000
SAUS41 KBOX 242155
MTRMQE
METAR KMQE 242154Z AUTO 19024G38KT 16/15 A2959 RMK AO1 PK WND
19038/2145 SLP031 T01610150





000
SAUS41 KBOX 242055
MTRMQE
METAR KMQE 242054Z AUTO 19021G29KT 16/16 A2960 RMK AO1 PK WND
19036/2015 SLP032 60001 T01610156 56013





000
SAUS41 KBOX 241955
MTRMQE
METAR KMQE 241954Z AUTO 19020G32KT 17/16 A2960 RMK AO1 PK WND
18036/1920 SLP035 T01670161





000
SAUS41 KBOX 241855
MTRMQE
METAR KMQE 241854Z AUTO 20023G41KT 17/17 A2962 RMK AO1 PK WND
20041/1849 SLP039 P0001 T01720167





000
SAUS41 KBOX 241756
MTRMQE
METAR KMQE 241754Z AUTO 19021G31KT 17/17 A2963 RMK AO1 PK WND
20035/1739 SLP046 P0001 60055 T01670167 10167 20122 56027





000
SAUS41 KBOX 241655
MTRMQE
METAR KMQE 241654Z AUTO 19023G33KT 16/16 A2966 RMK AO1 PK WND
19040/1601 SLP054 P0004 T01610161





000
SAUS41 KBOX 241555
MTRMQE
METAR KMQE 241554Z AUTO 18021G34KT 16/16 A2968 RMK AO1 PK WND
17038/1518 SLP061 P0012 T01610156





000
SAUS41 KBOX 241455
MTRMQE
METAR KMQE 241454Z AUTO 18022G36KT 15/15 A2972 RMK AO1 PK WND
16041/1401 SLP074 P0020 60038 T01500150 56044





000
SAUS41 KBOX 241355
MTRMQE
METAR KMQE 241354Z AUTO 16026G40KT 14/14 A2972 RMK AO1 PK WND
17047/1311 SLP076 P0006 T01440144





000
SAUS41 KBOX 241255
MTRMQE
METAR KMQE 241254Z AUTO 15025G38KT 13/13 A2976 RMK AO1 PK WND
16038/1245 SLP090 P0012 T01330133





000
SAUS41 KBOX 241155
MTRMQE
METAR KMQE 241154Z AUTO 15020G32KT 12/12 A2985 RMK AO1 PK WND
15034/1118 SLP120 P0007 60008 70008 T01220122 10122 20067 56037





000
SAUS41 KBOX 241055
MTRMQE
METAR KMQE 241054Z AUTO 15017G27KT 11/11 A2988 RMK AO1 PK WND
13028/1006 SLP128 P0001 T01110111





000
SAUS41 KBOX 240955
MTRMQE
METAR KMQE 240954Z AUTO 15018G27KT 10/10 A2992 RMK AO1 PK WND
16027/0949 SLP143 T01000100





000
SAUS41 KBOX 240955
MTRMQE
METAR KMQE 240954Z AUTO 15018G27KT 10/10 A2992 RMK AO1 PK WND
16027/0949 SLP143 T01000100





000
SAUS41 KBOX 240855
MTRMQE
METAR KMQE 240854Z AUTO 14016G22KT 09/09 A2996 RMK AO1 SLP158
T00890089 58030





000
SAUS41 KBOX 240755
MTRMQE
METAR KMQE 240754Z AUTO 14014KT 08/08 A3001 RMK AO1 SLP174 T00780078





000
SAUS41 KBOX 240655
MTRMQE
METAR KMQE 240654Z AUTO 15013KT 07/06 A3004 RMK AO1 SLP184 T00670061





000
SAUS41 KBOX 240555
MTRMQE
METAR KMQE 240554Z AUTO 17010KT 07/05 A3005 RMK AO1 SLP189 T00670050
10083 20056 58015





000
SAUS41 KBOX 240456
MTRMQE
METAR KMQE 240454Z AUTO 18011KT 06/03 A3008 RMK AO1 SLP198 T00560028
401440050





000
SAUS41 KBOX 240356
MTRMQE
METAR KMQE 240354Z AUTO 20016KT 06/02 A3009 RMK AO1 SLP203 T00610022





000
SAUS41 KBOX 240356
MTRMQE
METAR KMQE 240354Z AUTO 20016KT 06/02 A3009 RMK AO1 SLP203 T00610022





000
SAUS41 KBOX 240255
MTRMQE
METAR KMQE 240254Z AUTO 18012KT 06/03 A3010 RMK AO1 SLP206 T00610028
56010





000
SAUS41 KBOX 240155
MTRMQE
METAR KMQE 240154Z AUTO 18011KT 07/02 A3011 RMK AO1 SLP211 T00670017





000
SAUS41 KBOX 240155
MTRMQE
METAR KMQE 240154Z AUTO 18011KT 07/02 A3011 RMK AO1 SLP211 T00670017





000
SAUS41 KBOX 240055
MTRMQE
METAR KMQE 240054Z AUTO 17008KT 08/00 A3011 RMK AO1 SLP209 T00780000





000
SAUS41 KBOX 232355
MTRMQE
METAR KMQE 232354Z AUTO 18010KT 08/01 A3013 RMK AO1 SLP216 T00830006
10144 20083 51011





000
SAUS41 KBOX 232255
MTRMQE
METAR KMQE 232254Z AUTO 17009KT 09/01 A3012 RMK AO1 SLP214 T00940011





000
SAUS41 KBOX 232155
MTRMQE
METAR KMQE 232154Z AUTO 18010KT 12/02 A3011 RMK AO1 SLP209 T01220022





000
SAUS41 KBOX 232155
MTRMQE
METAR KMQE 232154Z AUTO 18010KT 12/02 A3011 RMK AO1 SLP209 T01220022





000
SAUS41 KBOX 232055
MTRMQE
METAR KMQE 232054Z AUTO 20007KT 13/02 A3010 RMK AO1 SLP204 T01280022
50002





000
SAUS41 KBOX 231955
MTRMQE
METAR KMQE 231954Z AUTO 25009KT 14/03 A3010 RMK AO1 SLP204 T01440028





000
SAUS41 KBOX 231955
MTRMQE
METAR KMQE 231954Z AUTO 25009KT 14/03 A3010 RMK AO1 SLP204 T01440028





000
SAUS41 KBOX 231855
MTRMQE
METAR KMQE 231854Z AUTO 24007KT 14/03 A3009 RMK AO1 SLP202 T01390028





000
SAUS41 KBOX 231755
MTRMQE
METAR KMQE 231754Z AUTO 26017G22KT 13/02 A3009 RMK AO1 SLP203
T01280022 10133 20050 56011





000
SAUS41 KBOX 231655
MTRMQE
METAR KMQE 231654Z AUTO 24008G16KT 13/01 A3010 RMK AO1 SLP204
T01280011





000
SAUS41 KBOX 231555
MTRMQE
METAR KMQE 231554Z AUTO 25010KT 11/M02 A3012 RMK AO1 SLP213
T01061017





000
SAUS41 KBOX 231555
MTRMQE
METAR KMQE 231554Z AUTO 25010KT 11/M02 A3012 RMK AO1 SLP213
T01061017





000
SAUS41 KBOX 231455
MTRMQE
METAR KMQE 231454Z AUTO 23011KT 08/M03 A3012 RMK AO1 SLP215
T00781033 51014





000
SAUS41 KBOX 231355
MTRMQE
METAR KMQE 231354Z AUTO 24012G20KT 07/M04 A3011 RMK AO1 SLP212
T00671039





000
SAUS41 KBOX 231255
MTRMQE
METAR KMQE 231254Z AUTO 22013KT 06/M04 A3010 RMK AO1 SLP207
T00611044





000
SAUS41 KBOX 231155
MTRMQE
METAR KMQE 231154Z AUTO 21014KT 05/M04 A3008 RMK AO1 SLP203
T00501044 10056 20050 53008





000
SAUS41 KBOX 231055
MTRMQE
METAR KMQE 231054Z AUTO 22013KT 05/M03 A3007 RMK AO1 SLP199
T00501028





000
SAUS41 KBOX 230955
MTRMQE
METAR KMQE 230954Z AUTO 23011KT 05/M04 A3006 RMK AO1 SLP197
T00501039





000
SAUS41 KBOX 230955
MTRMQE
METAR KMQE 230954Z AUTO 23011KT 05/M04 A3006 RMK AO1 SLP197
T00501039





    US Dept of Commerce
    National Oceanic and Atmospheric Administration
    National Weather Service
    1325 East West Highway
    Silver Spring, MD 20910
    Page Author: NWS Internet Services Team
Disclaimer
Information Quality
Credits
Glossary
Privacy Policy
Freedom of Information Act (FOIA)
About Us
Career Opportunities